sensor_id;sensor_type;location;lat;lon;timestamp;temperature;humidity
1083;DHT22;530;51.448;7.238;2023-11-19T00:00:17;11.00;99.90
1083;DHT22;530;51.448;7.238;2023-11-19T00:02:43;11.00;99.90
1083;DHT22;530;51.448;7.238;2023-11-19T00:05:10;11.00;99.90
1083;DHT22;530;51.448;7.238;2023-11-19T00:07:37;11.00;99.90
1083;DHT22;530;51.448;7.238;2023-11-19T00:10:05;11.10;99.90
1083;DHT22;530;51.448;7.238;2023-11-19T00:12:32;11.10;99.90
1083;DHT22;530;51.448;7.238;2023-11-19T00:14:58;11.10;99.90
1083;DHT22;530;51.448;7.238;2023-11-19T00:17:23;11.10;99.90
1083;DHT22;530;51.448;7.238;2023-11-19T00:19:49;11.20;99.90
1083;DHT22;530;51.448;7.238;2023-11-19T00:22:17;11.20;99.90
1083;DHT22;530;51.448;7.238;2023-11-19T00:24:42;11.20;99.90
1083;DHT22;530;51.448;7.238;2023-11-19T00:27:08;11.20;99.90
1083;DHT22;530;51.448;7.238;2023-11-19T00:29:33;11.10;99.90
1083;DHT22;530;51.448;7.238;2023-11-19T00:31:59;11.20;99.90
1083;DHT22;530;51.448;7.238;2023-11-19T00:34:25;11.20;99.90
1083;DHT22;530;51.448;7.238;2023-11-19T00:36:51;11.20;99.90
1083;DHT22;530;51.448;7.238;2023-11-19T00:39:17;11.20;99.90
1083;DHT22;530;51.448;7.238;2023-11-19T00:41:43;11.20;99.90
1083;DHT22;530;51.448;7.238;2023-11-19T00:44:09;11.20;99.90
1083;DHT22;530;51.448;7.238;2023-11-19T00:46:34;11.20;99.90
1083;DHT22;530;51.448;7.238;2023-11-19T00:49:00;11.20;99.90
1083;DHT22;530;51.448;7.238;2023-11-19T00:51:26;11.30;99.90
1083;DHT22;530;51.448;7.238;2023-11-19T00:53:52;11.40;99.90
1083;DHT22;530;51.448;7.238;2023-11-19T00:56:21;11.30;99.90
1083;DHT22;530;51.448;7.238;2023-11-19T00:58:46;11.40;99.90
1083;DHT22;530;51.448;7.238;2023-11-19T01:01:13;11.40;99.90
1083;DHT22;530;51.448;7.238;2023-11-19T01:03:38;11.40;99.90
1083;DHT22;530;51.448;7.238;2023-11-19T01:06:04;11.40;99.90
1083;DHT22;530;51.448;7.238;2023-11-19T01:08:30;11.50;99.90
1083;DHT22;530;51.448;7.238;2023-11-19T01:10:56;11.50;99.90
1083;DHT22;530;51.448;7.238;2023-11-19T01:13:22;11.50;99.90
1083;DHT22;530;51.448;7.238;2023-11-19T01:15:48;11.50;99.90
1083;DHT22;530;51.448;7.238;2023-11-19T01:18:13;11.60;99.90
1083;DHT22;530;51.448;7.238;2023-11-19T01:20:39;11.60;99.90
1083;DHT22;530;51.448;7.238;2023-11-19T01:23:05;11.60;99.90
1083;DHT22;530;51.448;7.238;2023-11-19T01:25:30;11.60;99.90
1083;DHT22;530;51.448;7.238;2023-11-19T01:27:56;11.60;99.90
1083;DHT22;530;51.448;7.238;2023-11-19T01:30:25;11.60;99.90
1083;DHT22;530;51.448;7.238;2023-11-19T01:32:51;11.60;99.90
1083;DHT22;530;51.448;7.238;2023-11-19T01:35:16;11.70;99.90
1083;DHT22;530;51.448;7.238;2023-11-19T01:37:42;11.70;99.90
1083;DHT22;530;51.448;7.238;2023-11-19T01:40:08;11.80;99.90
1083;DHT22;530;51.448;7.238;2023-11-19T01:42:40;11.70;99.90
1083;DHT22;530;51.448;7.238;2023-11-19T01:45:07;11.70;99.90
1083;DHT22;530;51.448;7.238;2023-11-19T01:47:34;11.80;99.90
1083;DHT22;530;51.448;7.238;2023-11-19T01:50:01;11.80;99.90
1083;DHT22;530;51.448;7.238;2023-11-19T01:52:33;11.70;99.90
1083;DHT22;530;51.448;7.238;2023-11-19T01:55:00;11.80;99.90
1083;DHT22;530;51.448;7.238;2023-11-19T01:57:26;11.80;99.90
1083;DHT22;530;51.448;7.238;2023-11-19T01:59:52;11.80;99.90
1083;DHT22;530;51.448;7.238;2023-11-19T02:02:19;11.80;99.90
1083;DHT22;530;51.448;7.238;2023-11-19T02:04:47;11.90;99.90
1083;DHT22;530;51.448;7.238;2023-11-19T02:07:14;11.80;99.90
1083;DHT22;530;51.448;7.238;2023-11-19T02:09:42;11.90;99.90
1083;DHT22;530;51.448;7.238;2023-11-19T02:12:08;11.90;99.90
1083;DHT22;530;51.448;7.238;2023-11-19T02:14:35;11.90;99.90
1083;DHT22;530;51.448;7.238;2023-11-19T02:17:01;11.90;99.90
1083;DHT22;530;51.448;7.238;2023-11-19T02:19:27;11.90;99.90
1083;DHT22;530;51.448;7.238;2023-11-19T02:21:53;11.90;99.90
1083;DHT22;530;51.448;7.238;2023-11-19T02:24:22;12.00;99.90
1083;DHT22;530;51.448;7.238;2023-11-19T02:27:10;12.00;99.90
1083;DHT22;530;51.448;7.238;2023-11-19T02:29:39;12.00;99.90
1083;DHT22;530;51.448;7.238;2023-11-19T02:32:05;12.00;99.90
1083;DHT22;530;51.448;7.238;2023-11-19T02:34:34;12.00;99.90
1083;DHT22;530;51.448;7.238;2023-11-19T02:37:01;12.00;99.90
1083;DHT22;530;51.448;7.238;2023-11-19T02:39:26;12.00;99.90
1083;DHT22;530;51.448;7.238;2023-11-19T02:41:52;12.00;99.90
1083;DHT22;530;51.448;7.238;2023-11-19T02:44:18;12.00;99.90
1083;DHT22;530;51.448;7.238;2023-11-19T02:46:44;12.00;99.90
1083;DHT22;530;51.448;7.238;2023-11-19T02:49:10;12.00;99.90
1083;DHT22;530;51.448;7.238;2023-11-19T02:51:35;12.10;99.90
1083;DHT22;530;51.448;7.238;2023-11-19T02:54:02;12.10;99.90
1083;DHT22;530;51.448;7.238;2023-11-19T02:56:29;12.20;99.90
1083;DHT22;530;51.448;7.238;2023-11-19T02:59:00;12.10;99.90
1083;DHT22;530;51.448;7.238;2023-11-19T03:01:32;12.10;99.90
1083;DHT22;530;51.448;7.238;2023-11-19T03:04:00;12.10;99.90
1083;DHT22;530;51.448;7.238;2023-11-19T03:06:27;12.10;99.90
1083;DHT22;530;51.448;7.238;2023-11-19T03:08:54;12.10;99.90
1083;DHT22;530;51.448;7.238;2023-11-19T03:11:20;12.10;99.90
1083;DHT22;530;51.448;7.238;2023-11-19T03:13:46;12.20;99.90
1083;DHT22;530;51.448;7.238;2023-11-19T03:16:12;12.20;99.90
1083;DHT22;530;51.448;7.238;2023-11-19T03:18:38;12.20;99.90
1083;DHT22;530;51.448;7.238;2023-11-19T03:21:07;12.20;99.90
1083;DHT22;530;51.448;7.238;2023-11-19T03:23:34;12.20;99.90
1083;DHT22;530;51.448;7.238;2023-11-19T03:26:00;12.20;99.90
1083;DHT22;530;51.448;7.238;2023-11-19T03:28:29;12.30;99.90
1083;DHT22;530;51.448;7.238;2023-11-19T03:30:54;12.30;99.90
1083;DHT22;530;51.448;7.238;2023-11-19T03:33:20;12.30;99.90
1083;DHT22;530;51.448;7.238;2023-11-19T03:35:46;12.30;99.90
1083;DHT22;530;51.448;7.238;2023-11-19T03:38:12;12.30;99.90
1083;DHT22;530;51.448;7.238;2023-11-19T03:40:38;12.30;99.90
1083;DHT22;530;51.448;7.238;2023-11-19T03:43:04;12.30;99.90
1083;DHT22;530;51.448;7.238;2023-11-19T03:45:30;12.30;99.90
1083;DHT22;530;51.448;7.238;2023-11-19T03:47:56;12.30;99.90
1083;DHT22;530;51.448;7.238;2023-11-19T03:50:22;12.20;99.90
1083;DHT22;530;51.448;7.238;2023-11-19T03:52:49;12.20;99.90
1083;DHT22;530;51.448;7.238;2023-11-19T03:55:15;12.20;99.90
1083;DHT22;530;51.448;7.238;2023-11-19T03:57:40;12.20;99.90
1083;DHT22;530;51.448;7.238;2023-11-19T04:00:07;12.20;99.90
1083;DHT22;530;51.448;7.238;2023-11-19T04:02:36;12.20;99.90
1083;DHT22;530;51.448;7.238;2023-11-19T04:05:02;12.20;99.90
1083;DHT22;530;51.448;7.238;2023-11-19T04:07:29;12.10;99.90
1083;DHT22;530;51.448;7.238;2023-11-19T04:09:55;12.10;99.90
1083;DHT22;530;51.448;7.238;2023-11-19T04:12:20;12.10;99.90
1083;DHT22;530;51.448;7.238;2023-11-19T04:14:47;12.10;99.90
1083;DHT22;530;51.448;7.238;2023-11-19T04:17:13;12.10;99.90
1083;DHT22;530;51.448;7.238;2023-11-19T04:19:38;12.10;99.90
1083;DHT22;530;51.448;7.238;2023-11-19T04:22:07;12.10;99.90
1083;DHT22;530;51.448;7.238;2023-11-19T04:24:33;12.10;99.90
1083;DHT22;530;51.448;7.238;2023-11-19T04:26:59;12.10;99.90
1083;DHT22;530;51.448;7.238;2023-11-19T04:29:25;12.10;99.90
1083;DHT22;530;51.448;7.238;2023-11-19T04:31:50;12.10;99.90
1083;DHT22;530;51.448;7.238;2023-11-19T04:34:16;12.10;99.90
1083;DHT22;530;51.448;7.238;2023-11-19T04:36:42;12.10;99.90
1083;DHT22;530;51.448;7.238;2023-11-19T04:39:09;12.10;99.90
1083;DHT22;530;51.448;7.238;2023-11-19T04:41:48;12.10;99.90
1083;DHT22;530;51.448;7.238;2023-11-19T04:44:18;12.00;99.90
1083;DHT22;530;51.448;7.238;2023-11-19T04:46:44;12.10;99.90
1083;DHT22;530;51.448;7.238;2023-11-19T04:49:11;12.10;99.90
1083;DHT22;530;51.448;7.238;2023-11-19T04:51:40;12.10;99.90
1083;DHT22;530;51.448;7.238;2023-11-19T04:54:07;12.00;99.90
1083;DHT22;530;51.448;7.238;2023-11-19T04:56:34;12.00;99.90
1083;DHT22;530;51.448;7.238;2023-11-19T04:59:01;12.00;99.90
1083;DHT22;530;51.448;7.238;2023-11-19T05:01:27;11.90;99.90
1083;DHT22;530;51.448;7.238;2023-11-19T05:03:53;11.90;99.90
1083;DHT22;530;51.448;7.238;2023-11-19T05:06:19;11.90;99.90
1083;DHT22;530;51.448;7.238;2023-11-19T05:08:45;11.90;99.90
1083;DHT22;530;51.448;7.238;2023-11-19T05:11:11;11.90;99.90
1083;DHT22;530;51.448;7.238;2023-11-19T05:13:43;11.90;99.90
1083;DHT22;530;51.448;7.238;2023-11-19T05:16:11;11.90;99.90
1083;DHT22;530;51.448;7.238;2023-11-19T05:18:40;11.90;99.90
1083;DHT22;530;51.448;7.238;2023-11-19T05:21:06;11.90;99.90
1083;DHT22;530;51.448;7.238;2023-11-19T05:23:32;11.90;99.90
1083;DHT22;530;51.448;7.238;2023-11-19T05:26:00;12.00;99.90
1083;DHT22;530;51.448;7.238;2023-11-19T05:28:26;12.00;99.90
1083;DHT22;530;51.448;7.238;2023-11-19T05:30:52;11.90;99.90
1083;DHT22;530;51.448;7.238;2023-11-19T05:33:17;11.90;99.90
1083;DHT22;530;51.448;7.238;2023-11-19T05:35:43;12.00;99.90
1083;DHT22;530;51.448;7.238;2023-11-19T05:38:08;12.00;99.90
1083;DHT22;530;51.448;7.238;2023-11-19T05:40:35;12.00;99.90
1083;DHT22;530;51.448;7.238;2023-11-19T05:43:01;12.00;99.90
1083;DHT22;530;51.448;7.238;2023-11-19T05:45:27;12.00;99.90
1083;DHT22;530;51.448;7.238;2023-11-19T05:47:53;12.00;99.90
1083;DHT22;530;51.448;7.238;2023-11-19T05:50:19;12.00;99.90
1083;DHT22;530;51.448;7.238;2023-11-19T05:52:44;12.00;99.90
1083;DHT22;530;51.448;7.238;2023-11-19T05:55:10;12.00;99.90
1083;DHT22;530;51.448;7.238;2023-11-19T05:57:37;12.00;99.90
1083;DHT22;530;51.448;7.238;2023-11-19T06:00:03;12.10;99.90
1083;DHT22;530;51.448;7.238;2023-11-19T06:02:32;12.00;99.90
1083;DHT22;530;51.448;7.238;2023-11-19T06:04:58;12.00;99.90
1083;DHT22;530;51.448;7.238;2023-11-19T06:07:24;12.00;99.90
1083;DHT22;530;51.448;7.238;2023-11-19T06:09:50;12.00;99.90
1083;DHT22;530;51.448;7.238;2023-11-19T06:12:16;12.00;99.90
1083;DHT22;530;51.448;7.238;2023-11-19T06:14:41;11.90;99.90
1083;DHT22;530;51.448;7.238;2023-11-19T06:17:07;12.00;99.90
1083;DHT22;530;51.448;7.238;2023-11-19T06:19:34;12.00;99.90
1083;DHT22;530;51.448;7.238;2023-11-19T06:21:59;12.00;99.90
1083;DHT22;530;51.448;7.238;2023-11-19T06:24:25;12.00;99.90
1083;DHT22;530;51.448;7.238;2023-11-19T06:26:51;12.00;99.90
1083;DHT22;530;51.448;7.238;2023-11-19T06:29:16;12.10;99.90
1083;DHT22;530;51.448;7.238;2023-11-19T06:31:45;12.00;99.90
1083;DHT22;530;51.448;7.238;2023-11-19T06:34:12;12.00;99.90
1083;DHT22;530;51.448;7.238;2023-11-19T06:36:37;11.90;99.90
1083;DHT22;530;51.448;7.238;2023-11-19T06:39:03;12.00;99.90
1083;DHT22;530;51.448;7.238;2023-11-19T06:41:29;11.90;99.90
1083;DHT22;530;51.448;7.238;2023-11-19T06:43:55;11.90;99.90
1083;DHT22;530;51.448;7.238;2023-11-19T06:46:20;11.80;99.90
1083;DHT22;530;51.448;7.238;2023-11-19T06:48:46;11.90;99.90
1083;DHT22;530;51.448;7.238;2023-11-19T06:51:12;11.90;99.90
1083;DHT22;530;51.448;7.238;2023-11-19T06:53:38;11.90;99.90
1083;DHT22;530;51.448;7.238;2023-11-19T06:56:20;11.90;99.90
1083;DHT22;530;51.448;7.238;2023-11-19T06:58:46;11.80;99.90
1083;DHT22;530;51.448;7.238;2023-11-19T07:01:13;11.80;99.90
1083;DHT22;530;51.448;7.238;2023-11-19T07:03:39;11.80;99.90
1083;DHT22;530;51.448;7.238;2023-11-19T07:06:05;11.70;99.90
1083;DHT22;530;51.448;7.238;2023-11-19T07:08:31;11.70;99.90
1083;DHT22;530;51.448;7.238;2023-11-19T07:10:56;11.70;99.90
1083;DHT22;530;51.448;7.238;2023-11-19T07:13:22;11.70;99.90
1083;DHT22;530;51.448;7.238;2023-11-19T07:15:48;11.70;99.90
1083;DHT22;530;51.448;7.238;2023-11-19T07:18:14;11.70;99.90
1083;DHT22;530;51.448;7.238;2023-11-19T07:20:39;11.70;99.90
1083;DHT22;530;51.448;7.238;2023-11-19T07:23:05;11.70;99.90
1083;DHT22;530;51.448;7.238;2023-11-19T07:25:31;11.60;99.90
1083;DHT22;530;51.448;7.238;2023-11-19T07:27:57;11.70;99.90
1083;DHT22;530;51.448;7.238;2023-11-19T07:30:22;11.60;99.90
1083;DHT22;530;51.448;7.238;2023-11-19T07:32:48;11.60;99.90
1083;DHT22;530;51.448;7.238;2023-11-19T07:35:14;11.60;99.90
1083;DHT22;530;51.448;7.238;2023-11-19T07:37:42;11.70;99.90
1083;DHT22;530;51.448;7.238;2023-11-19T07:40:08;11.60;99.90
1083;DHT22;530;51.448;7.238;2023-11-19T07:42:34;11.60;99.90
1083;DHT22;530;51.448;7.238;2023-11-19T07:44:59;11.60;99.90
1083;DHT22;530;51.448;7.238;2023-11-19T07:47:25;11.60;99.90
1083;DHT22;530;51.448;7.238;2023-11-19T07:49:51;11.70;99.90
1083;DHT22;530;51.448;7.238;2023-11-19T07:52:16;11.70;99.90
1083;DHT22;530;51.448;7.238;2023-11-19T07:54:42;11.70;99.90
1083;DHT22;530;51.448;7.238;2023-11-19T07:57:09;11.80;99.90
1083;DHT22;530;51.448;7.238;2023-11-19T07:59:35;11.80;99.90
1083;DHT22;530;51.448;7.238;2023-11-19T08:02:01;11.80;99.90
1083;DHT22;530;51.448;7.238;2023-11-19T08:04:27;11.80;99.90
1083;DHT22;530;51.448;7.238;2023-11-19T08:06:53;11.80;99.90
1083;DHT22;530;51.448;7.238;2023-11-19T08:09:19;11.70;99.90
1083;DHT22;530;51.448;7.238;2023-11-19T08:11:44;11.80;99.90
1083;DHT22;530;51.448;7.238;2023-11-19T08:14:11;11.90;99.90
1083;DHT22;530;51.448;7.238;2023-11-19T08:16:39;12.00;99.90
1083;DHT22;530;51.448;7.238;2023-11-19T08:19:04;12.10;99.90
1083;DHT22;530;51.448;7.238;2023-11-19T08:21:30;12.20;99.90
1083;DHT22;530;51.448;7.238;2023-11-19T08:23:56;12.20;99.90
1083;DHT22;530;51.448;7.238;2023-11-19T08:26:22;12.10;99.90
1083;DHT22;530;51.448;7.238;2023-11-19T08:28:47;12.10;99.90
1083;DHT22;530;51.448;7.238;2023-11-19T08:31:13;12.20;99.90
1083;DHT22;530;51.448;7.238;2023-11-19T08:33:39;12.20;99.90
1083;DHT22;530;51.448;7.238;2023-11-19T08:36:04;12.10;99.90
1083;DHT22;530;51.448;7.238;2023-11-19T08:38:30;12.10;99.90
1083;DHT22;530;51.448;7.238;2023-11-19T08:40:56;12.10;99.90
1083;DHT22;530;51.448;7.238;2023-11-19T08:43:25;12.00;99.90
1083;DHT22;530;51.448;7.238;2023-11-19T08:45:51;12.00;99.90
1083;DHT22;530;51.448;7.238;2023-11-19T08:48:17;12.10;99.90
1083;DHT22;530;51.448;7.238;2023-11-19T08:50:42;12.10;99.90
1083;DHT22;530;51.448;7.238;2023-11-19T08:53:08;12.10;99.90
1083;DHT22;530;51.448;7.238;2023-11-19T08:55:34;12.10;99.90
1083;DHT22;530;51.448;7.238;2023-11-19T08:57:59;12.10;99.90
1083;DHT22;530;51.448;7.238;2023-11-19T09:00:25;12.20;99.90
1083;DHT22;530;51.448;7.238;2023-11-19T09:02:51;12.20;99.90
1083;DHT22;530;51.448;7.238;2023-11-19T09:05:16;12.20;99.90
1083;DHT22;530;51.448;7.238;2023-11-19T09:07:42;12.20;99.90
1083;DHT22;530;51.448;7.238;2023-11-19T09:10:08;12.30;99.90
1083;DHT22;530;51.448;7.238;2023-11-19T09:12:34;12.30;99.90
1083;DHT22;530;51.448;7.238;2023-11-19T09:15:00;12.40;99.90
1083;DHT22;530;51.448;7.238;2023-11-19T09:17:26;12.40;99.90
1083;DHT22;530;51.448;7.238;2023-11-19T09:19:51;12.30;99.90
1083;DHT22;530;51.448;7.238;2023-11-19T09:22:17;12.30;99.90
1083;DHT22;530;51.448;7.238;2023-11-19T09:24:43;12.20;99.90
1083;DHT22;530;51.448;7.238;2023-11-19T09:27:10;12.30;99.90
1083;DHT22;530;51.448;7.238;2023-11-19T09:29:36;12.40;99.90
1083;DHT22;530;51.448;7.238;2023-11-19T09:32:01;12.40;99.90
1083;DHT22;530;51.448;7.238;2023-11-19T09:34:27;12.40;99.90
1083;DHT22;530;51.448;7.238;2023-11-19T09:36:53;12.30;99.90
1083;DHT22;530;51.448;7.238;2023-11-19T09:39:19;12.30;99.90
1083;DHT22;530;51.448;7.238;2023-11-19T09:41:46;12.30;99.90
1083;DHT22;530;51.448;7.238;2023-11-19T09:44:12;12.40;99.90
1083;DHT22;530;51.448;7.238;2023-11-19T09:46:41;12.30;99.90
1083;DHT22;530;51.448;7.238;2023-11-19T09:49:08;12.30;99.90
1083;DHT22;530;51.448;7.238;2023-11-19T09:51:35;12.30;99.90
1083;DHT22;530;51.448;7.238;2023-11-19T09:54:01;12.40;99.90
1083;DHT22;530;51.448;7.238;2023-11-19T09:56:29;12.40;99.90
1083;DHT22;530;51.448;7.238;2023-11-19T09:58:55;12.30;99.90
1083;DHT22;530;51.448;7.238;2023-11-19T10:01:21;12.40;99.90
1083;DHT22;530;51.448;7.238;2023-11-19T10:03:47;12.40;99.90
1083;DHT22;530;51.448;7.238;2023-11-19T10:06:14;12.40;99.90
1083;DHT22;530;51.448;7.238;2023-11-19T10:08:41;12.50;99.90
1083;DHT22;530;51.448;7.238;2023-11-19T10:11:08;12.60;99.90
1083;DHT22;530;51.448;7.238;2023-11-19T10:13:37;12.70;99.90
1083;DHT22;530;51.448;7.238;2023-11-19T10:16:09;12.80;99.90
1083;DHT22;530;51.448;7.238;2023-11-19T10:18:37;12.80;99.90
1083;DHT22;530;51.448;7.238;2023-11-19T10:21:06;12.90;99.90
1083;DHT22;530;51.448;7.238;2023-11-19T10:23:56;12.90;99.90
1083;DHT22;530;51.448;7.238;2023-11-19T10:26:24;12.80;99.90
1083;DHT22;530;51.448;7.238;2023-11-19T10:28:49;12.80;99.90
1083;DHT22;530;51.448;7.238;2023-11-19T10:31:16;12.70;99.90
1083;DHT22;530;51.448;7.238;2023-11-19T10:33:43;12.70;99.90
1083;DHT22;530;51.448;7.238;2023-11-19T10:36:11;12.60;99.90
1083;DHT22;530;51.448;7.238;2023-11-19T10:38:40;12.60;99.90
1083;DHT22;530;51.448;7.238;2023-11-19T10:41:06;12.60;99.90
1083;DHT22;530;51.448;7.238;2023-11-19T10:43:43;12.60;99.90
1083;DHT22;530;51.448;7.238;2023-11-19T10:46:13;12.50;99.90
1083;DHT22;530;51.448;7.238;2023-11-19T10:48:40;12.50;99.90
1083;DHT22;530;51.448;7.238;2023-11-19T10:51:07;12.50;99.90
1083;DHT22;530;51.448;7.238;2023-11-19T10:53:37;12.50;99.90
1083;DHT22;530;51.448;7.238;2023-11-19T10:56:10;12.60;99.90
1083;DHT22;530;51.448;7.238;2023-11-19T10:58:37;12.50;99.90
1083;DHT22;530;51.448;7.238;2023-11-19T11:01:11;12.60;99.90
1083;DHT22;530;51.448;7.238;2023-11-19T11:03:40;12.60;99.90
1083;DHT22;530;51.448;7.238;2023-11-19T11:06:06;12.60;99.90
1083;DHT22;530;51.448;7.238;2023-11-19T11:08:36;12.50;99.90
1083;DHT22;530;51.448;7.238;2023-11-19T11:11:03;12.50;99.90
1083;DHT22;530;51.448;7.238;2023-11-19T11:13:31;12.50;99.90
1083;DHT22;530;51.448;7.238;2023-11-19T11:15:58;12.50;99.90
1083;DHT22;530;51.448;7.238;2023-11-19T11:18:24;12.50;99.90
1083;DHT22;530;51.448;7.238;2023-11-19T11:21:14;12.50;99.90
1083;DHT22;530;51.448;7.238;2023-11-19T11:26:53;12.50;99.90
1083;DHT22;530;51.448;7.238;2023-11-19T11:29:40;12.50;99.90
1083;DHT22;530;51.448;7.238;2023-11-19T11:32:22;12.50;99.90
1083;DHT22;530;51.448;7.238;2023-11-19T11:37:46;12.60;99.90
1083;DHT22;530;51.448;7.238;2023-11-19T11:40:17;12.60;99.90
1083;DHT22;530;51.448;7.238;2023-11-19T11:42:46;12.60;99.90
1083;DHT22;530;51.448;7.238;2023-11-19T11:45:13;12.70;99.90
1083;DHT22;530;51.448;7.238;2023-11-19T11:50:11;12.80;99.90
1083;DHT22;530;51.448;7.238;2023-11-19T11:57:56;13.20;99.90
1083;DHT22;530;51.448;7.238;2023-11-19T12:03:01;13.50;99.90
1083;DHT22;530;51.448;7.238;2023-11-19T12:05:27;13.50;99.90
1083;DHT22;530;51.448;7.238;2023-11-19T12:07:58;13.40;99.90
1083;DHT22;530;51.448;7.238;2023-11-19T12:10:25;13.40;99.90
1083;DHT22;530;51.448;7.238;2023-11-19T12:12:58;13.30;99.90
1083;DHT22;530;51.448;7.238;2023-11-19T12:15:24;13.20;99.90
1083;DHT22;530;51.448;7.238;2023-11-19T12:17:52;13.20;99.90
1083;DHT22;530;51.448;7.238;2023-11-19T12:20:19;13.10;99.90
1083;DHT22;530;51.448;7.238;2023-11-19T12:22:46;13.10;99.90
1083;DHT22;530;51.448;7.238;2023-11-19T12:25:13;13.10;99.90
1083;DHT22;530;51.448;7.238;2023-11-19T12:27:52;13.10;99.90
1083;DHT22;530;51.448;7.238;2023-11-19T12:30:25;13.10;99.90
1083;DHT22;530;51.448;7.238;2023-11-19T12:32:51;13.00;99.90
1083;DHT22;530;51.448;7.238;2023-11-19T12:35:19;13.00;99.90
1083;DHT22;530;51.448;7.238;2023-11-19T12:37:49;13.00;99.90
1083;DHT22;530;51.448;7.238;2023-11-19T12:40:23;13.00;99.90
1083;DHT22;530;51.448;7.238;2023-11-19T12:42:50;13.00;99.90
1083;DHT22;530;51.448;7.238;2023-11-19T12:45:16;13.00;99.90
1083;DHT22;530;51.448;7.238;2023-11-19T12:47:43;13.00;99.90
1083;DHT22;530;51.448;7.238;2023-11-19T12:50:09;13.00;99.90
1083;DHT22;530;51.448;7.238;2023-11-19T12:52:36;13.00;99.90
1083;DHT22;530;51.448;7.238;2023-11-19T12:55:04;13.00;99.90
1083;DHT22;530;51.448;7.238;2023-11-19T12:57:40;13.00;99.90
1083;DHT22;530;51.448;7.238;2023-11-19T13:00:06;13.00;99.90
1083;DHT22;530;51.448;7.238;2023-11-19T13:02:48;13.00;99.90
1083;DHT22;530;51.448;7.238;2023-11-19T13:05:26;13.00;99.90
1083;DHT22;530;51.448;7.238;2023-11-19T13:08:02;12.90;99.90
1083;DHT22;530;51.448;7.238;2023-11-19T13:10:29;12.80;99.90
1083;DHT22;530;51.448;7.238;2023-11-19T13:15:27;12.70;99.90
1083;DHT22;530;51.448;7.238;2023-11-19T13:17:53;12.60;99.90
1083;DHT22;530;51.448;7.238;2023-11-19T13:20:19;12.70;99.90
1083;DHT22;530;51.448;7.238;2023-11-19T13:22:58;12.60;99.90
1083;DHT22;530;51.448;7.238;2023-11-19T13:25:24;12.50;99.90
1083;DHT22;530;51.448;7.238;2023-11-19T13:27:50;12.40;99.90
1083;DHT22;530;51.448;7.238;2023-11-19T13:30:16;12.50;99.90
1083;DHT22;530;51.448;7.238;2023-11-19T13:32:42;12.50;99.90
1083;DHT22;530;51.448;7.238;2023-11-19T13:35:10;12.40;99.90
1083;DHT22;530;51.448;7.238;2023-11-19T13:37:35;12.50;99.90
1083;DHT22;530;51.448;7.238;2023-11-19T13:40:01;12.50;99.90
1083;DHT22;530;51.448;7.238;2023-11-19T13:42:28;12.40;99.90
1083;DHT22;530;51.448;7.238;2023-11-19T13:44:54;12.40;99.90
1083;DHT22;530;51.448;7.238;2023-11-19T13:47:20;12.40;99.90
1083;DHT22;530;51.448;7.238;2023-11-19T13:49:46;12.40;99.90
1083;DHT22;530;51.448;7.238;2023-11-19T13:52:12;12.40;99.90
1083;DHT22;530;51.448;7.238;2023-11-19T13:54:37;12.40;99.90
1083;DHT22;530;51.448;7.238;2023-11-19T13:57:03;12.30;99.90
1083;DHT22;530;51.448;7.238;2023-11-19T13:59:31;12.30;99.90
1083;DHT22;530;51.448;7.238;2023-11-19T14:01:58;12.40;99.90
1083;DHT22;530;51.448;7.238;2023-11-19T14:04:23;12.40;99.90
1083;DHT22;530;51.448;7.238;2023-11-19T14:06:49;12.30;99.90
1083;DHT22;530;51.448;7.238;2023-11-19T14:09:15;12.30;99.90
1083;DHT22;530;51.448;7.238;2023-11-19T14:11:40;12.40;99.90
1083;DHT22;530;51.448;7.238;2023-11-19T14:14:07;12.40;99.90
1083;DHT22;530;51.448;7.238;2023-11-19T14:16:33;12.40;99.90
1083;DHT22;530;51.448;7.238;2023-11-19T14:19:00;12.40;99.90
1083;DHT22;530;51.448;7.238;2023-11-19T14:21:25;12.40;99.90
1083;DHT22;530;51.448;7.238;2023-11-19T14:23:52;12.40;99.90
1083;DHT22;530;51.448;7.238;2023-11-19T14:26:18;12.40;99.90
1083;DHT22;530;51.448;7.238;2023-11-19T14:28:44;12.40;99.90
1083;DHT22;530;51.448;7.238;2023-11-19T14:31:10;12.30;99.90
1083;DHT22;530;51.448;7.238;2023-11-19T14:33:35;12.40;99.90
1083;DHT22;530;51.448;7.238;2023-11-19T14:36:03;12.40;99.90
1083;DHT22;530;51.448;7.238;2023-11-19T14:38:29;12.30;99.90
1083;DHT22;530;51.448;7.238;2023-11-19T14:40:55;12.30;99.90
1083;DHT22;530;51.448;7.238;2023-11-19T14:43:21;12.20;99.90
1083;DHT22;530;51.448;7.238;2023-11-19T14:45:47;12.20;99.90
1083;DHT22;530;51.448;7.238;2023-11-19T14:48:12;12.20;99.90
1083;DHT22;530;51.448;7.238;2023-11-19T14:50:38;12.20;99.90
1083;DHT22;530;51.448;7.238;2023-11-19T14:53:04;12.10;99.90
1083;DHT22;530;51.448;7.238;2023-11-19T14:55:29;12.20;99.90
1083;DHT22;530;51.448;7.238;2023-11-19T14:57:55;12.20;99.90
1083;DHT22;530;51.448;7.238;2023-11-19T15:00:22;12.10;99.90
1083;DHT22;530;51.448;7.238;2023-11-19T15:02:47;12.20;99.90
1083;DHT22;530;51.448;7.238;2023-11-19T15:05:13;12.10;99.90
1083;DHT22;530;51.448;7.238;2023-11-19T15:07:39;12.10;99.90
1083;DHT22;530;51.448;7.238;2023-11-19T15:10:06;12.10;99.90
1083;DHT22;530;51.448;7.238;2023-11-19T15:12:36;12.10;99.90
1083;DHT22;530;51.448;7.238;2023-11-19T15:15:08;12.00;99.90
1083;DHT22;530;51.448;7.238;2023-11-19T15:17:35;12.10;99.90
1083;DHT22;530;51.448;7.238;2023-11-19T15:20:02;11.90;99.90
1083;DHT22;530;51.448;7.238;2023-11-19T15:22:28;11.90;99.90
1083;DHT22;530;51.448;7.238;2023-11-19T15:24:54;11.80;99.90
1083;DHT22;530;51.448;7.238;2023-11-19T15:27:19;11.90;99.90
1083;DHT22;530;51.448;7.238;2023-11-19T15:29:45;11.90;99.90
1083;DHT22;530;51.448;7.238;2023-11-19T15:32:11;11.80;99.90
1083;DHT22;530;51.448;7.238;2023-11-19T15:34:36;11.80;99.90
1083;DHT22;530;51.448;7.238;2023-11-19T15:37:04;11.80;99.90
1083;DHT22;530;51.448;7.238;2023-11-19T15:39:30;11.90;99.90
1083;DHT22;530;51.448;7.238;2023-11-19T15:41:55;11.80;99.90
1083;DHT22;530;51.448;7.238;2023-11-19T15:44:23;11.70;99.90
1083;DHT22;530;51.448;7.238;2023-11-19T15:46:49;11.70;99.90
1083;DHT22;530;51.448;7.238;2023-11-19T15:49:15;11.70;99.90
1083;DHT22;530;51.448;7.238;2023-11-19T15:51:42;11.70;99.90
1083;DHT22;530;51.448;7.238;2023-11-19T15:54:08;11.70;99.90
1083;DHT22;530;51.448;7.238;2023-11-19T15:56:33;11.70;99.90
1083;DHT22;530;51.448;7.238;2023-11-19T15:58:59;11.70;99.90
1083;DHT22;530;51.448;7.238;2023-11-19T16:01:25;11.60;99.90
1083;DHT22;530;51.448;7.238;2023-11-19T16:03:52;11.60;99.90
1083;DHT22;530;51.448;7.238;2023-11-19T16:06:18;11.60;99.90
1083;DHT22;530;51.448;7.238;2023-11-19T16:08:44;11.60;99.90
1083;DHT22;530;51.448;7.238;2023-11-19T16:11:10;11.60;99.90
1083;DHT22;530;51.448;7.238;2023-11-19T16:13:35;11.60;99.90
1083;DHT22;530;51.448;7.238;2023-11-19T16:16:01;11.60;99.90
1083;DHT22;530;51.448;7.238;2023-11-19T16:18:27;11.70;99.90
1083;DHT22;530;51.448;7.238;2023-11-19T16:20:54;11.60;99.90
1083;DHT22;530;51.448;7.238;2023-11-19T16:23:20;11.60;99.90
1083;DHT22;530;51.448;7.238;2023-11-19T16:25:46;11.60;99.90
1083;DHT22;530;51.448;7.238;2023-11-19T16:28:12;11.60;99.90
1083;DHT22;530;51.448;7.238;2023-11-19T16:30:38;11.60;99.90
1083;DHT22;530;51.448;7.238;2023-11-19T16:33:03;11.60;99.90